createdAt,value
2022-08-21T00:42:53.793Z,1011.55
2022-08-21T00:43:54.786Z,1011.52
2022-08-21T00:48:52.316Z,1011.55
2022-08-21T00:49:52.348Z,1011.58
2022-08-21T00:52:52.431Z,1011.55
2022-08-21T01:04:42.556Z,1011.65
2022-08-21T01:05:41.381Z,1011.61
2022-08-21T01:06:41.398Z,1011.63
2022-08-21T01:07:41.439Z,1011.64
2022-08-21T01:08:46.906Z,1011.63
2022-08-21T01:09:42.912Z,1011.62
2022-08-21T01:10:41.726Z,1011.66
2022-08-21T01:12:14.964Z,1011.67
2022-08-21T01:14:14.819Z,1011.65
2022-08-21T01:14:41.643Z,1011.69
2022-08-21T01:15:42.067Z,1011.67
2022-08-21T01:16:41.697Z,1011.71
2022-08-21T01:17:41.925Z,1011.67
2022-08-21T01:18:41.740Z,1011.74
2022-08-21T01:19:41.772Z,1011.72
2022-08-21T01:20:44.618Z,1011.70
2022-08-21T01:22:34.391Z,1011.71
2022-08-21T01:23:34.420Z,1011.72
2022-08-21T01:24:34.845Z,1011.70
2022-08-21T01:25:34.874Z,1011.71
2022-08-21T01:26:34.800Z,1011.67
2022-08-21T01:27:34.526Z,1011.68
2022-08-21T01:28:34.553Z,1011.65
2022-08-21T01:29:34.583Z,1011.66
2022-08-21T01:30:34.609Z,1011.67
2022-08-21T01:31:34.637Z,1011.63
2022-08-21T01:32:34.667Z,1011.64
2022-08-21T01:33:34.697Z,1011.67
2022-08-21T01:34:34.725Z,1011.67
2022-08-21T01:35:34.754Z,1011.67
2022-08-21T01:36:34.780Z,1011.65
2022-08-21T01:37:34.813Z,1011.65
2022-08-21T01:38:34.839Z,1011.62
2022-08-21T01:39:34.912Z,1011.63
2022-08-21T01:40:34.895Z,1011.67
2022-08-21T01:41:34.923Z,1011.65
2022-08-21T01:42:34.950Z,1011.63
2022-08-21T01:43:39.664Z,1011.66
2022-08-21T01:44:35.007Z,1011.68
2022-08-21T01:45:35.038Z,1011.62
2022-08-21T01:46:35.064Z,1011.61
2022-08-21T01:47:35.094Z,1011.65
2022-08-21T01:48:35.120Z,1011.58
2022-08-21T01:49:35.151Z,1011.61
2022-08-21T01:50:35.178Z,1011.60
2022-08-21T01:51:35.206Z,1011.60
2022-08-21T01:52:35.233Z,1011.61
2022-08-21T01:53:37.887Z,1011.54
2022-08-21T01:54:35.298Z,1011.58
2022-08-21T01:55:35.319Z,1011.58
2022-08-21T01:56:36.157Z,1011.59
2022-08-21T01:57:35.390Z,1011.54
2022-08-21T01:58:35.401Z,1011.56
2022-08-21T01:59:35.444Z,1011.55
2022-08-21T02:00:35.529Z,1011.53
2022-08-21T02:01:35.487Z,1011.54
2022-08-21T02:02:35.511Z,1011.57
2022-08-21T02:04:35.571Z,1011.53
2022-08-21T02:06:18.151Z,1011.58
2022-08-21T02:07:18.236Z,1011.53
2022-08-21T02:08:18.204Z,1011.56
2022-08-21T02:09:18.231Z,1011.56
2022-08-21T02:10:18.258Z,1011.53
2022-08-21T02:11:18.287Z,1011.55
2022-08-21T02:12:18.315Z,1011.57
2022-08-21T02:13:18.354Z,1011.55
2022-08-21T02:14:32.450Z,1011.50
2022-08-21T02:15:18.398Z,1011.55
2022-08-21T02:16:19.413Z,1011.52
2022-08-21T02:17:18.466Z,1011.52
2022-08-21T02:18:18.480Z,1011.49
2022-08-21T02:19:18.509Z,1011.50
2022-08-21T02:20:18.536Z,1011.53
2022-08-21T02:22:18.606Z,1011.50
2022-08-21T02:24:18.661Z,1011.52
2022-08-21T02:26:18.720Z,1011.58
2022-08-21T02:27:18.948Z,1011.51
2022-08-21T02:28:18.776Z,1011.50
2022-08-21T02:29:19.001Z,1011.51
2022-08-21T02:30:18.817Z,1011.48
2022-08-21T02:31:18.845Z,1011.49
2022-08-21T02:32:18.887Z,1011.47
2022-08-21T02:33:18.901Z,1011.49
2022-08-21T02:34:19.148Z,1011.51
2022-08-21T02:35:19.278Z,1011.50
2022-08-21T02:36:19.202Z,1011.51
2022-08-21T02:37:19.026Z,1011.50
2022-08-21T02:38:19.057Z,1011.51
2022-08-21T02:39:27.341Z,1011.51
2022-08-21T02:40:19.165Z,1011.48
2022-08-21T02:42:19.154Z,1011.51
2022-08-21T02:43:19.504Z,1011.51
2022-08-21T02:45:19.759Z,1011.51
2022-08-21T02:46:19.267Z,1011.49
2022-08-21T02:47:19.510Z,1011.46
2022-08-21T02:48:19.538Z,1011.47
2022-08-21T02:49:19.363Z,1011.45
2022-08-21T02:50:19.379Z,1011.50
2022-08-21T02:51:19.414Z,1011.44
2022-08-21T02:52:19.436Z,1011.44
2022-08-21T02:53:20.185Z,1011.45
2022-08-21T02:54:19.492Z,1011.45
2022-08-21T02:55:19.527Z,1011.46
2022-08-21T02:56:19.559Z,1011.45
2022-08-21T02:57:19.585Z,1011.48
2022-08-21T02:58:19.822Z,1011.49
2022-08-21T02:59:19.642Z,1011.48
2022-08-21T03:00:19.878Z,1011.46
2022-08-21T03:01:20.491Z,1011.49
2022-08-21T03:02:19.715Z,1011.47
2022-08-21T03:03:19.741Z,1011.47
2022-08-21T03:04:19.785Z,1011.52
2022-08-21T03:05:19.869Z,1011.46
2022-08-21T03:07:19.869Z,1011.47
2022-08-21T03:08:19.893Z,1011.47
2022-08-21T03:09:20.126Z,1011.45
2022-08-21T03:10:20.151Z,1011.47
2022-08-21T03:11:19.982Z,1011.46
2022-08-21T03:14:20.260Z,1011.47
2022-08-21T03:15:20.827Z,1011.44
2022-08-21T03:16:20.519Z,1011.41
2022-08-21T03:17:20.135Z,1011.45
2022-08-21T03:18:20.173Z,1011.43
2022-08-21T03:19:20.192Z,1011.44
2022-08-21T03:20:20.267Z,1011.44
2022-08-21T03:21:20.245Z,1011.45
2022-08-21T03:22:20.273Z,1011.42
2022-08-21T03:23:20.301Z,1011.45
2022-08-21T03:24:21.294Z,1011.45
2022-08-21T03:25:20.359Z,1011.41
2022-08-21T03:26:20.386Z,1011.39
2022-08-21T03:27:20.415Z,1011.40
2022-08-21T03:28:20.439Z,1011.43
2022-08-21T03:29:21.076Z,1011.43
2022-08-21T03:30:21.102Z,1011.42
2022-08-21T03:31:20.540Z,1011.45
2022-08-21T03:32:20.552Z,1011.40
2022-08-21T03:33:23.158Z,1011.46
2022-08-21T03:35:20.636Z,1011.47
2022-08-21T03:36:20.667Z,1011.47
2022-08-21T03:37:20.691Z,1011.47
2022-08-21T03:38:25.874Z,1011.48
2022-08-21T03:39:20.750Z,1011.48
2022-08-21T03:40:20.810Z,1011.48
2022-08-21T03:41:20.804Z,1011.47
2022-08-21T03:42:20.834Z,1011.45
2022-08-21T03:43:20.859Z,1011.46
2022-08-21T03:44:20.890Z,1011.45
2022-08-21T03:45:20.915Z,1011.47
2022-08-21T03:46:20.944Z,1011.48
2022-08-21T03:47:20.973Z,1011.46
2022-08-21T03:48:21.001Z,1011.42
2022-08-21T03:49:21.025Z,1011.44
2022-08-21T03:50:21.056Z,1011.45
2022-08-21T03:51:21.084Z,1011.45
2022-08-21T03:52:21.111Z,1011.43
2022-08-21T03:53:21.138Z,1011.42
2022-08-21T03:55:13.752Z,1011.41
2022-08-21T03:56:13.771Z,1011.43
2022-08-21T03:57:13.794Z,1011.47
2022-08-21T03:58:16.570Z,1011.45
2022-08-21T03:59:17.684Z,1011.41
2022-08-21T04:00:13.890Z,1011.46
2022-08-21T04:01:13.915Z,1011.48
2022-08-21T04:02:13.948Z,1011.47
2022-08-21T04:03:14.171Z,1011.46
2022-08-21T04:06:14.058Z,1011.59
2022-08-21T04:07:14.284Z,1011.55
2022-08-21T04:09:14.139Z,1011.59
2022-08-21T04:10:14.170Z,1011.56
2022-08-21T04:11:14.193Z,1011.59
2022-08-21T04:16:14.332Z,1011.60
2022-08-21T04:17:14.358Z,1011.62
2022-08-21T04:19:14.613Z,1011.63
2022-08-21T04:22:14.706Z,1011.61
2022-08-21T04:26:15.728Z,1011.61
2022-08-21T04:27:14.635Z,1011.60
2022-08-21T04:30:14.924Z,1011.61
2022-08-21T04:31:14.734Z,1011.58
2022-08-21T04:32:14.762Z,1011.64
2022-08-21T04:33:14.800Z,1011.67
2022-08-21T04:34:14.817Z,1011.65
2022-08-21T04:35:14.841Z,1011.68
2022-08-21T04:36:14.871Z,1011.68
2022-08-21T04:37:14.896Z,1011.69
2022-08-21T04:38:14.926Z,1011.69
2022-08-21T04:39:14.952Z,1011.71
2022-08-21T04:40:15.063Z,1011.71
2022-08-21T04:41:15.006Z,1011.73
2022-08-21T04:42:15.037Z,1011.77
2022-08-21T04:43:15.063Z,1011.75
2022-08-21T04:45:07.845Z,1011.75
2022-08-21T04:46:07.874Z,1011.74
2022-08-21T04:47:07.901Z,1011.75
2022-08-21T04:48:13.332Z,1011.80
2022-08-21T04:49:12.003Z,1011.76
2022-08-21T04:50:08.793Z,1011.80
2022-08-21T04:51:08.015Z,1011.77
2022-08-21T04:55:08.120Z,1011.79
2022-08-21T04:56:08.144Z,1011.80
2022-08-21T04:57:08.173Z,1011.83
2022-08-21T04:58:08.201Z,1011.82
2022-08-21T04:59:08.430Z,1011.83
2022-08-21T05:00:12.379Z,1011.83
2022-08-21T05:01:08.399Z,1011.89
2022-08-21T05:02:55.873Z,1011.89
2022-08-21T05:03:55.902Z,1011.93
2022-08-21T05:04:55.926Z,1011.93
2022-08-21T05:05:55.959Z,1011.97
2022-08-21T05:06:55.982Z,1011.92
2022-08-21T05:07:56.012Z,1011.91
2022-08-21T05:09:01.606Z,1011.92
2022-08-21T05:10:29.481Z,1011.91
2022-08-21T05:11:00.319Z,1011.96
2022-08-21T05:11:56.124Z,1012.00
2022-08-21T05:12:56.150Z,1012.02
2022-08-21T05:15:43.766Z,1012.04
2022-08-21T05:17:36.367Z,1012.02
2022-08-21T05:18:36.396Z,1012.06
2022-08-21T05:19:36.423Z,1012.04
2022-08-21T05:20:36.458Z,1012.01
2022-08-21T05:21:36.477Z,1012.01
2022-08-21T05:22:36.507Z,1011.99
2022-08-21T05:23:36.534Z,1011.97
2022-08-21T05:24:36.562Z,1012.01
2022-08-21T05:25:36.591Z,1011.97
2022-08-21T05:26:45.332Z,1012.00
2022-08-21T05:27:36.648Z,1011.96
2022-08-21T05:28:36.677Z,1011.97
2022-08-21T05:29:36.702Z,1011.99
2022-08-21T05:30:36.732Z,1011.95
2022-08-21T05:31:36.759Z,1012.01
2022-08-21T05:32:36.789Z,1012.06
2022-08-21T05:33:36.815Z,1012.02
2022-08-21T05:34:36.849Z,1011.97
2022-08-21T05:35:36.872Z,1012.01
2022-08-21T05:36:36.902Z,1011.97
2022-08-21T05:37:36.928Z,1011.95
2022-08-21T05:38:36.957Z,1011.94
2022-08-21T05:40:20.184Z,1011.97
2022-08-21T05:40:37.030Z,1011.97
2022-08-21T05:41:37.041Z,1011.97
2022-08-21T05:42:37.072Z,1011.99
2022-08-21T05:43:37.098Z,1011.99
2022-08-21T05:44:37.128Z,1012.01
2022-08-21T05:45:42.722Z,1011.96
2022-08-21T05:46:37.186Z,1011.92
2022-08-21T05:47:37.214Z,1011.94
2022-08-21T05:48:37.244Z,1011.95
2022-08-21T05:49:37.319Z,1011.96
2022-08-21T05:50:37.298Z,1011.95
2022-08-21T05:51:37.326Z,1011.91
2022-08-21T05:52:37.372Z,1011.98
2022-08-21T05:53:41.225Z,1011.99
2022-08-21T05:54:37.410Z,1012.01
2022-08-21T05:55:41.390Z,1011.99
2022-08-21T05:56:37.684Z,1011.93
2022-08-21T05:57:37.812Z,1011.95
2022-08-21T05:58:37.539Z,1011.93
2022-08-21T06:00:37.590Z,1011.96
2022-08-21T06:01:37.690Z,1012.02
2022-08-21T06:02:37.637Z,1012.00
2022-08-21T06:03:37.668Z,1012.01
2022-08-21T06:04:37.696Z,1012.02
2022-08-21T06:05:37.779Z,1012.01
2022-08-21T06:06:37.752Z,1011.97
2022-08-21T06:07:37.785Z,1012.01
2022-08-21T06:08:37.811Z,1012.01
2022-08-21T06:09:37.842Z,1012.00
2022-08-21T06:10:37.870Z,1012.07
2022-08-21T06:11:37.916Z,1012.07
2022-08-21T06:12:37.937Z,1012.04
2022-08-21T06:13:37.965Z,1012.04
2022-08-21T06:14:37.988Z,1012.08
2022-08-21T06:15:38.020Z,1012.08
2022-08-21T06:16:38.050Z,1012.00
2022-08-21T06:17:38.081Z,1012.01
2022-08-21T06:18:38.108Z,1012.05
2022-08-21T06:19:38.139Z,1011.99
2022-08-21T06:20:38.170Z,1012.01
2022-08-21T06:21:38.200Z,1011.99
2022-08-21T06:22:42.065Z,1011.98
2022-08-21T06:23:38.262Z,1011.93
2022-08-21T06:24:38.292Z,1011.90
2022-08-21T06:25:38.323Z,1011.91
2022-08-21T06:26:38.354Z,1011.91
2022-08-21T06:27:38.397Z,1011.88
2022-08-21T06:28:38.428Z,1011.88
2022-08-21T06:29:44.638Z,1011.90
2022-08-21T06:31:38.524Z,1011.89
2022-08-21T06:32:38.559Z,1011.83
2022-08-21T06:33:38.576Z,1011.81
2022-08-21T06:34:38.931Z,1011.84
2022-08-21T06:35:41.545Z,1011.81
2022-08-21T06:36:38.688Z,1011.82
2022-08-21T06:37:38.707Z,1011.76
2022-08-21T06:38:38.751Z,1011.78
2022-08-21T06:39:43.282Z,1011.77
2022-08-21T06:40:43.784Z,1011.76
2022-08-21T06:41:39.056Z,1011.85
2022-08-21T06:42:38.867Z,1011.80
2022-08-21T06:43:39.640Z,1011.79
2022-08-21T06:44:38.933Z,1011.85
2022-08-21T06:45:38.961Z,1011.89
2022-08-21T06:46:38.996Z,1011.88
2022-08-21T06:47:39.025Z,1011.90
2022-08-21T06:48:39.064Z,1011.89
2022-08-21T06:49:39.092Z,1011.92
2022-08-21T06:50:39.340Z,1011.95
2022-08-21T06:51:39.156Z,1011.93
2022-08-21T06:52:39.190Z,1011.94
2022-08-21T06:53:39.471Z,1011.94
2022-08-21T06:54:39.262Z,1011.99
2022-08-21T06:55:39.290Z,1011.93
2022-08-21T06:56:39.329Z,1011.93
2022-08-21T06:57:39.355Z,1011.96
2022-08-21T06:58:39.593Z,1011.97
2022-08-21T06:59:39.424Z,1012.03
2022-08-21T07:00:39.459Z,1012.05
2022-08-21T07:01:39.529Z,1011.96
2022-08-21T07:02:41.510Z,1012.06
2022-08-21T07:03:39.563Z,1012.00
2022-08-21T07:04:39.600Z,1012.07
2022-08-21T07:05:39.632Z,1012.00
2022-08-21T07:06:39.672Z,1012.02
2022-08-21T07:08:37.299Z,1012.00
2022-08-21T07:09:37.538Z,1012.02
2022-08-21T07:10:37.574Z,1012.06
2022-08-21T07:11:43.228Z,1012.03
2022-08-21T07:12:37.443Z,1012.02
2022-08-21T07:13:37.482Z,1012.04
2022-08-21T07:14:37.514Z,1012.02
2022-08-21T07:16:37.590Z,1012.01
2022-08-21T07:21:20.743Z,1012.07
2022-08-21T07:23:06.417Z,1012.05
2022-08-21T07:24:06.257Z,1012.03
2022-08-21T07:25:06.293Z,1012.01
2022-08-21T07:26:06.330Z,1012.05
2022-08-21T07:27:09.906Z,1012.05
2022-08-21T07:28:06.410Z,1012.05
2022-08-21T07:29:06.449Z,1012.01
2022-08-21T07:30:06.690Z,1012.08
2022-08-21T07:31:06.527Z,1012.06
2022-08-21T07:32:06.566Z,1012.11
2022-08-21T07:33:06.602Z,1012.12
2022-08-21T07:34:06.642Z,1012.09
2022-08-21T07:35:06.680Z,1012.05
2022-08-21T07:36:06.721Z,1012.08
2022-08-21T07:37:10.019Z,1012.06
2022-08-21T07:38:06.799Z,1011.99
2022-08-21T07:41:06.917Z,1012.03
2022-08-21T07:42:08.554Z,1012.06
2022-08-21T07:43:07.001Z,1012.07
2022-08-21T07:44:07.037Z,1012.08
2022-08-21T07:45:07.076Z,1012.13
2022-08-21T07:46:07.111Z,1012.14
2022-08-21T07:47:07.151Z,1012.12
2022-08-21T07:48:07.204Z,1012.10
2022-08-21T07:49:07.234Z,1012.05
2022-08-21T07:51:07.312Z,1011.95
2022-08-21T07:52:09.977Z,1011.96
2022-08-21T07:53:07.389Z,1011.94
2022-08-21T07:54:07.432Z,1011.94
2022-08-21T07:55:07.472Z,1011.90
2022-08-21T07:56:07.513Z,1011.95
2022-08-21T07:57:07.869Z,1011.90
2022-08-21T07:58:07.591Z,1011.91
2022-08-21T07:59:07.630Z,1011.95
2022-08-21T08:00:07.674Z,1011.97
2022-08-21T08:01:07.778Z,1011.93
2022-08-21T08:02:07.751Z,1011.96
2022-08-21T08:03:07.790Z,1012.00
2022-08-21T08:04:07.833Z,1011.98
2022-08-21T08:05:07.872Z,1012.02
2022-08-21T08:06:07.912Z,1012.01
2022-08-21T08:07:07.958Z,1012.05
2022-08-21T08:08:07.995Z,1012.02
2022-08-21T08:09:08.029Z,1012.08
2022-08-21T08:10:08.092Z,1012.10
2022-08-21T08:11:08.111Z,1012.09
2022-08-21T08:12:08.154Z,1012.09
2022-08-21T08:13:10.576Z,1012.08
2022-08-21T08:14:08.233Z,1012.03
2022-08-21T08:15:08.271Z,1012.01
2022-08-21T08:16:08.312Z,1012.01
2022-08-21T08:17:08.351Z,1011.99
2022-08-21T08:18:08.394Z,1012.00
2022-08-21T08:19:08.433Z,1012.00
2022-08-21T08:20:08.477Z,1012.08
2022-08-21T08:21:08.515Z,1012.04
2022-08-21T08:22:08.557Z,1012.05
2022-08-21T08:23:08.595Z,1011.99
2022-08-21T08:24:18.758Z,1011.95
2022-08-21T08:25:09.584Z,1011.96
2022-08-21T08:26:08.718Z,1011.94
2022-08-21T08:27:08.759Z,1011.97
2022-08-21T08:28:16.651Z,1012.02
2022-08-21T08:29:08.840Z,1012.05
2022-08-21T08:30:08.894Z,1012.03
2022-08-21T08:31:08.920Z,1011.97
2022-08-21T08:32:08.963Z,1011.99
2022-08-21T08:33:09.002Z,1011.96
2022-08-21T08:34:09.043Z,1011.95
2022-08-21T08:35:09.085Z,1011.93
2022-08-21T08:36:09.126Z,1011.99
2022-08-21T08:37:09.163Z,1011.96
2022-08-21T08:38:09.206Z,1011.95
2022-08-21T08:39:09.245Z,1011.90
2022-08-21T08:40:09.329Z,1011.91
2022-08-21T08:41:09.326Z,1011.89
2022-08-21T08:42:32.262Z,1011.89
2022-08-21T08:43:09.410Z,1011.91
2022-08-21T08:44:09.454Z,1011.87
2022-08-21T08:45:09.491Z,1011.87
2022-08-21T08:46:09.532Z,1011.89
2022-08-21T08:47:09.572Z,1011.90
2022-08-21T08:48:14.230Z,1011.88
2022-08-21T08:49:09.653Z,1011.87
2022-08-21T08:50:09.696Z,1011.81
2022-08-21T08:51:09.736Z,1011.83
2022-08-21T08:52:09.778Z,1011.84
2022-08-21T08:53:09.817Z,1011.82
2022-08-21T08:54:09.859Z,1011.82
2022-08-21T08:55:09.899Z,1011.86
2022-08-21T08:56:09.939Z,1011.79
2022-08-21T08:57:09.981Z,1011.81
2022-08-21T08:58:10.023Z,1011.74
2022-08-21T08:59:10.074Z,1011.81
2022-08-21T09:00:10.106Z,1011.77
2022-08-21T09:01:10.164Z,1011.75
2022-08-21T09:02:10.186Z,1011.78
2022-08-21T09:03:10.226Z,1011.72
2022-08-21T09:04:10.267Z,1011.76
2022-08-21T09:05:10.305Z,1011.77
2022-08-21T09:06:10.348Z,1011.73
2022-08-21T09:07:10.388Z,1011.76
2022-08-21T09:08:10.429Z,1011.72
2022-08-21T09:09:10.478Z,1011.73
2022-08-21T09:10:10.529Z,1011.80
2022-08-21T09:11:10.547Z,1011.70
2022-08-21T09:12:10.607Z,1011.68
2022-08-21T09:13:10.643Z,1011.69
2022-08-21T09:14:10.673Z,1011.64
2022-08-21T09:15:10.710Z,1011.60
2022-08-21T09:16:10.753Z,1011.64
2022-08-21T09:17:10.791Z,1011.64
2022-08-21T09:18:10.839Z,1011.61
2022-08-21T09:19:10.874Z,1011.61
2022-08-21T09:20:10.914Z,1011.58
2022-08-21T09:21:10.956Z,1011.61
2022-08-21T09:22:10.999Z,1011.62
2022-08-21T09:23:11.036Z,1011.55
2022-08-21T09:24:11.079Z,1011.56
2022-08-21T09:25:11.121Z,1011.48
2022-08-21T09:26:11.159Z,1011.47
2022-08-21T09:27:11.198Z,1011.38
2022-08-21T09:28:11.241Z,1011.36
2022-08-21T09:29:11.280Z,1011.38
2022-08-21T09:30:11.321Z,1011.47
2022-08-21T09:31:11.359Z,1011.42
2022-08-21T09:32:15.362Z,1011.45
2022-08-21T09:33:11.440Z,1011.45
2022-08-21T09:34:11.492Z,1011.49
2022-08-21T09:35:11.520Z,1011.53
2022-08-21T09:36:11.562Z,1011.51
2022-08-21T09:37:11.609Z,1011.52
2022-08-21T09:38:11.640Z,1011.54
2022-08-21T09:39:11.679Z,1011.46
2022-08-21T09:40:11.953Z,1011.46
2022-08-21T09:41:11.758Z,1011.46
2022-08-21T09:42:11.802Z,1011.46
2022-08-21T09:43:11.838Z,1011.45
2022-08-21T09:44:11.901Z,1011.37
2022-08-21T09:45:11.918Z,1011.44
2022-08-21T09:46:11.959Z,1011.39
2022-08-21T09:47:11.995Z,1011.43
2022-08-21T09:48:12.038Z,1011.40
2022-08-21T09:49:15.023Z,1011.44
2022-08-21T09:50:12.114Z,1011.44
2022-08-21T09:51:12.149Z,1011.41
2022-08-21T09:52:12.190Z,1011.41
2022-08-21T09:53:12.226Z,1011.41
2022-08-21T09:54:12.266Z,1011.39
2022-08-21T09:55:12.302Z,1011.37
2022-08-21T09:56:12.344Z,1011.36
2022-08-21T09:57:12.378Z,1011.33
2022-08-21T09:58:12.418Z,1011.31
2022-08-21T09:59:12.453Z,1011.32
2022-08-21T10:00:12.494Z,1011.25
2022-08-21T10:01:12.609Z,1011.25
2022-08-21T10:02:15.192Z,1011.19
2022-08-21T10:03:12.608Z,1011.18
2022-08-21T10:04:12.647Z,1011.19
2022-08-21T10:05:12.683Z,1011.20
2022-08-21T10:06:12.721Z,1011.19
2022-08-21T10:07:12.760Z,1011.14
2022-08-21T10:08:12.798Z,1011.15
2022-08-21T10:09:18.768Z,1011.18
2022-08-21T10:10:12.875Z,1011.22
2022-08-21T10:11:12.909Z,1011.15
2022-08-21T10:12:12.949Z,1011.12
2022-08-21T10:13:13.035Z,1011.09
2022-08-21T10:14:13.025Z,1011.05
2022-08-21T10:15:13.059Z,1011.02
2022-08-21T10:16:13.102Z,1011.03
2022-08-21T10:17:13.136Z,1010.86
2022-08-21T10:18:13.174Z,1010.88
2022-08-21T10:19:13.208Z,1010.93
2022-08-21T10:20:13.247Z,1010.95
2022-08-21T10:21:13.287Z,1010.93
2022-08-21T10:22:13.324Z,1010.87
2022-08-21T10:23:13.359Z,1010.74
2022-08-21T10:24:31.277Z,1010.84
2022-08-21T10:25:13.434Z,1010.97
2022-08-21T10:26:14.530Z,1011.02
2022-08-21T10:27:13.507Z,1011.04
2022-08-21T10:28:14.113Z,1011.00
2022-08-21T10:29:13.583Z,1010.97
2022-08-21T10:30:13.696Z,1010.94
2022-08-21T10:31:13.655Z,1010.92
2022-08-21T10:32:17.316Z,1010.93
2022-08-21T10:33:13.778Z,1010.91
2022-08-21T10:34:13.817Z,1010.96
2022-08-21T10:35:13.804Z,1010.92
2022-08-21T10:36:13.844Z,1010.89
2022-08-21T10:37:13.876Z,1010.86
2022-08-21T10:38:28.202Z,1010.86
2022-08-21T10:39:34.903Z,1010.84
2022-08-21T10:40:14.208Z,1010.80
2022-08-21T10:41:14.024Z,1010.85
2022-08-21T10:42:14.062Z,1010.76
2022-08-21T10:43:14.096Z,1010.71
2022-08-21T10:44:14.137Z,1010.72
2022-08-21T10:45:14.170Z,1010.80
2022-08-21T10:46:14.207Z,1010.80
2022-08-21T10:47:14.244Z,1010.74
2022-08-21T10:48:14.281Z,1010.79
2022-08-21T10:49:14.320Z,1010.72
2022-08-21T10:50:14.355Z,1010.71
2022-08-21T10:51:14.390Z,1010.73
2022-08-21T10:52:14.426Z,1010.68
2022-08-21T10:53:14.459Z,1010.65
2022-08-21T10:54:14.497Z,1010.67
2022-08-21T10:55:14.533Z,1010.61
2022-08-21T10:56:14.571Z,1010.61
2022-08-21T10:57:14.605Z,1010.62
2022-08-21T10:58:14.644Z,1010.63
2022-08-21T10:59:14.678Z,1010.61
2022-08-21T11:00:14.717Z,1010.62
2022-08-21T11:01:14.873Z,1010.61
2022-08-21T11:02:14.789Z,1010.65
2022-08-21T11:03:14.823Z,1010.57
2022-08-21T11:04:14.861Z,1010.58
2022-08-21T11:05:14.898Z,1010.49
2022-08-21T11:06:14.933Z,1010.55
2022-08-21T11:07:17.407Z,1010.52
2022-08-21T11:08:15.004Z,1010.54
2022-08-21T11:09:15.039Z,1010.50
2022-08-21T11:10:15.078Z,1010.47
2022-08-21T11:11:16.041Z,1010.49
2022-08-21T11:12:15.147Z,1010.45
2022-08-21T11:13:15.183Z,1010.48
2022-08-21T11:14:15.218Z,1010.40
2022-08-21T11:15:29.272Z,1010.49
2022-08-21T11:16:15.291Z,1010.52
2022-08-21T11:17:17.267Z,1010.49
2022-08-21T11:18:15.363Z,1010.51
2022-08-21T11:19:15.395Z,1010.53
2022-08-21T11:20:15.433Z,1010.52
2022-08-21T11:21:15.464Z,1010.55
2022-08-21T11:22:15.601Z,1010.52
2022-08-21T11:23:15.536Z,1010.52
2022-08-21T11:24:15.572Z,1010.46
2022-08-21T11:25:15.608Z,1010.49
2022-08-21T11:26:15.640Z,1010.44
2022-08-21T11:27:15.675Z,1010.47
2022-08-21T11:28:15.711Z,1010.43
2022-08-21T11:29:15.745Z,1010.44
2022-08-21T11:30:15.781Z,1010.49
2022-08-21T11:31:15.814Z,1010.42
2022-08-21T11:32:15.851Z,1010.45
2022-08-21T11:33:15.884Z,1010.41
2022-08-21T11:34:15.920Z,1010.40
2022-08-21T11:35:15.953Z,1010.39
2022-08-21T11:36:15.990Z,1010.39
2022-08-21T11:37:16.022Z,1010.37
2022-08-21T11:38:16.058Z,1010.38
2022-08-21T11:39:16.089Z,1010.38
2022-08-21T11:40:16.247Z,1010.34
2022-08-21T11:41:16.160Z,1010.41
2022-08-21T11:42:16.194Z,1010.37
2022-08-21T11:43:16.233Z,1010.41
2022-08-21T11:44:16.264Z,1010.39
2022-08-21T11:45:16.298Z,1010.36
2022-08-21T11:46:16.330Z,1010.40
2022-08-21T11:47:16.369Z,1010.35
2022-08-21T11:48:16.403Z,1010.41
2022-08-21T11:49:16.433Z,1010.36
2022-08-21T11:50:34.125Z,1010.32
2022-08-21T11:51:16.506Z,1010.33
2022-08-21T11:52:16.552Z,1010.37
2022-08-21T11:53:16.892Z,1010.30
2022-08-21T11:54:17.015Z,1010.31
2022-08-21T11:55:16.646Z,1010.32
2022-08-21T11:56:16.880Z,1010.28
2022-08-21T11:57:17.114Z,1010.25
2022-08-21T11:58:16.748Z,1010.27
2022-08-21T12:02:14.544Z,1010.12
2022-08-21T12:03:14.462Z,1010.24
2022-08-21T12:04:14.492Z,1010.22
2022-08-21T12:05:14.529Z,1010.23
2022-08-21T12:06:14.564Z,1010.18
2022-08-21T12:07:14.597Z,1010.15
2022-08-21T12:08:14.629Z,1010.14
2022-08-21T12:11:32.550Z,1010.07
2022-08-21T12:12:33.394Z,1010.10
2022-08-21T12:13:39.821Z,1010.15
2022-08-21T12:24:28.438Z,1010.04
2022-08-21T12:25:28.466Z,1010.00
2022-08-21T12:26:28.500Z,1010.00
2022-08-21T12:27:28.531Z,1010.03
2022-08-21T12:28:28.564Z,1010.02
2022-08-21T12:29:28.598Z,1009.96
2022-08-21T12:30:28.631Z,1009.98
2022-08-21T12:31:28.665Z,1009.96
2022-08-21T12:32:28.697Z,1009.99
2022-08-21T12:33:28.731Z,1009.97
2022-08-21T12:34:28.762Z,1009.99
2022-08-21T12:35:28.796Z,1010.01
2022-08-21T12:36:28.832Z,1010.03
2022-08-21T12:37:28.863Z,1010.06
2022-08-21T12:38:28.895Z,1010.02
2022-08-21T12:39:28.931Z,1010.01
2022-08-21T12:40:28.962Z,1010.04
2022-08-21T12:41:29.011Z,1010.02
2022-08-21T12:42:29.029Z,1010.08
2022-08-21T12:43:29.064Z,1010.02
2022-08-21T12:44:29.094Z,1010.01
2022-08-21T12:45:29.137Z,1009.88
2022-08-21T12:46:29.161Z,1009.96
2022-08-21T12:47:29.215Z,1009.86
2022-08-21T12:48:29.441Z,1009.83
2022-08-21T12:50:29.715Z,1010.02
2022-08-21T12:54:29.849Z,1009.82
2022-08-21T13:10:56.250Z,1009.97
2022-08-21T13:12:32.591Z,1009.91
2022-08-21T13:14:32.010Z,1009.92
2022-08-21T13:15:33.425Z,1009.91
2022-08-21T13:23:31.916Z,1009.92
2022-08-21T13:26:30.495Z,1009.92
2022-08-21T13:27:30.526Z,1009.86
2022-08-21T13:28:30.561Z,1009.88
2022-08-21T13:29:30.578Z,1009.81
2022-08-21T13:30:30.833Z,1009.81
2022-08-21T13:31:30.847Z,1009.77
2022-08-21T13:32:30.882Z,1009.82
2022-08-21T13:34:30.756Z,1009.79
2022-08-21T13:35:30.779Z,1009.84
2022-08-21T13:37:30.854Z,1009.70
2022-08-21T13:38:30.936Z,1009.67
2022-08-21T13:39:31.112Z,1009.73
2022-08-21T13:40:31.162Z,1009.77
2022-08-21T13:41:30.975Z,1009.80
2022-08-21T13:42:31.027Z,1009.79
2022-08-21T13:43:31.256Z,1009.73
2022-08-21T13:44:31.296Z,1009.73
2022-08-21T13:45:31.116Z,1009.69
2022-08-21T13:46:31.463Z,1009.73
2022-08-21T13:47:31.491Z,1009.72
2022-08-21T13:48:31.221Z,1009.75
2022-08-21T13:49:31.455Z,1009.78
2022-08-21T13:50:31.283Z,1009.75
2022-08-21T13:51:31.323Z,1009.69
2022-08-21T13:52:31.351Z,1009.62
2022-08-21T13:53:31.688Z,1009.70
2022-08-21T13:54:31.621Z,1009.69
2022-08-21T13:56:31.481Z,1009.80
2022-08-21T13:57:31.720Z,1009.75
2022-08-21T13:59:31.782Z,1009.75
2022-08-21T14:00:31.618Z,1009.72
2022-08-21T14:01:31.706Z,1009.69
2022-08-21T14:02:32.288Z,1009.72
2022-08-21T14:03:31.712Z,1009.69
2022-08-21T14:04:31.749Z,1009.66
2022-08-21T14:33:49.574Z,1009.52
2022-08-21T14:34:49.608Z,1009.51
2022-08-21T14:35:49.640Z,1009.51
2022-08-21T14:36:49.674Z,1009.44
2022-08-21T14:37:50.134Z,1009.44
2022-08-21T14:38:49.738Z,1009.45
2022-08-21T14:39:49.802Z,1009.43
2022-08-21T14:40:49.803Z,1009.41
2022-08-21T14:41:49.836Z,1009.42
2022-08-21T14:42:49.868Z,1009.35
2022-08-21T14:44:01.218Z,1009.36
2022-08-21T14:44:49.933Z,1009.41
2022-08-21T14:45:49.974Z,1009.39
2022-08-21T14:46:56.128Z,1009.38
2022-08-21T14:47:50.028Z,1009.32
2022-08-21T14:48:50.064Z,1009.32
2022-08-21T14:49:50.095Z,1009.31
2022-08-21T14:50:50.129Z,1009.33
2022-08-21T14:51:54.157Z,1009.30
2022-08-21T14:52:50.193Z,1009.32
2022-08-21T14:53:50.224Z,1009.34
2022-08-21T14:54:50.258Z,1009.35
2022-08-21T14:55:50.289Z,1009.35
2022-08-21T14:56:50.324Z,1009.30
2022-08-21T15:03:09.642Z,1009.32
2022-08-21T15:04:09.676Z,1009.32
2022-08-21T15:05:09.707Z,1009.38
2022-08-21T15:06:09.744Z,1009.34
2022-08-21T15:07:09.770Z,1009.40
2022-08-21T15:08:09.805Z,1009.40
2022-08-21T15:09:09.834Z,1009.37
2022-08-21T15:10:09.998Z,1009.30
2022-08-21T15:11:13.699Z,1009.34
2022-08-21T15:12:09.933Z,1009.38
2022-08-21T15:13:09.963Z,1009.37
2022-08-21T15:14:09.998Z,1009.39
2022-08-21T15:15:10.026Z,1009.36